Time;durP1;ratioP1;P1;durP2;ratioP2;P2;SDS_P1;SDS_P2;PMS_P1;PMS_P2;Temp;Humidity;BMP_temperature;BMP_pressure;BME280_temperature;BME280_humidity;BME280_pressure;Samples;Min_cycle;Max_cycle;Signal;HPM_P1;HPM_P2
2021/11/02 00:01:17;;;;;;;26.30;17.47;;;;;;;;;;768899;180;918983;-67
2021/11/02 00:03:43;;;;;;;26.23;17.98;;;;;;;;;;773837;180;919102;-67
2021/11/02 00:06:09;;;;;;;21.63;17.40;;;;;;;;;;771386;180;918798;-67
2021/11/02 00:08:35;;;;;;;27.37;15.10;;;;;;;;;;768332;181;919789;-66
2021/11/02 00:11:01;;;;;;;25.62;17.85;;;;;;;;;;762339;181;1375441;-65
2021/11/02 00:13:30;;;;;;;17.17;13.63;;;;;;;;;;772948;180;919678;-65
2021/11/02 00:15:59;;;;;;;20.30;14.90;;;;;;;;;;768685;180;920930;-65
2021/11/02 00:18:26;;;;;;;20.73;15.53;;;;;;;;;;771194;180;918980;-65
2021/11/02 00:20:58;;;;;;;17.93;13.20;;;;;;;;;;770226;180;919956;-64
2021/11/02 00:23:17;;;;;;;20.33;14.60;;;;;;;;;;763101;183;919200;-66
2021/11/02 00:25:43;;;;;;;20.20;14.53;;;;;;;;;;771609;180;919403;-64
2021/11/02 00:28:08;;;;;;;19.60;14.50;;;;;;;;;;768005;179;918339;-64
2021/11/02 00:30:34;;;;;;;22.63;14.50;;;;;;;;;;774866;179;918689;-64
2021/11/02 00:33:01;;;;;;;21.05;14.77;;;;;;;;;;770238;180;919560;-64
2021/11/02 00:35:26;;;;;;;18.77;14.93;;;;;;;;;;773092;179;918176;-64
2021/11/02 00:37:52;;;;;;;18.97;13.27;;;;;;;;;;779101;179;919827;-64
2021/11/02 00:40:18;;;;;;;19.65;14.05;;;;;;;;;;770577;180;919171;-64
2021/11/02 00:42:51;;;;;;;14.47;12.20;;;;;;;;;;773902;179;916990;-65
2021/11/02 00:45:17;;;;;;;16.20;12.20;;;;;;;;;;776712;179;919961;-65
2021/11/02 00:47:41;;;;;;;16.20;11.47;;;;;;;;;;769002;180;1709232;-66
2021/11/02 00:50:10;;;;;;;14.00;10.30;;;;;;;;;;768175;180;919049;-65
2021/11/02 00:52:34;;;;;;;13.82;9.98;;;;;;;;;;762952;180;920337;-65
2021/11/02 00:55:00;;;;;;;13.87;9.77;;;;;;;;;;767147;180;915197;-66
2021/11/02 00:57:25;;;;;;;12.47;8.57;;;;;;;;;;774439;180;916571;-65
2021/11/02 00:59:51;;;;;;;12.67;9.80;;;;;;;;;;765350;178;915355;-65
2021/11/02 01:02:18;;;;;;;14.27;10.83;;;;;;;;;;777241;179;916595;-65
2021/11/02 01:04:43;;;;;;;16.40;10.53;;;;;;;;;;772857;180;915815;-65
2021/11/02 01:07:08;;;;;;;13.62;10.80;;;;;;;;;;774544;179;919244;-64
2021/11/02 01:09:34;;;;;;;15.77;11.00;;;;;;;;;;769458;181;919429;-64
2021/11/02 01:12:00;;;;;;;19.83;11.73;;;;;;;;;;775990;180;918658;-65
2021/11/02 01:14:26;;;;;;;13.60;10.03;;;;;;;;;;763141;180;919855;-65
2021/11/02 01:16:52;;;;;;;12.27;9.40;;;;;;;;;;768059;180;919451;-69
2021/11/02 01:19:18;;;;;;;17.20;11.53;;;;;;;;;;773660;177;918700;-66
2021/11/02 01:21:44;;;;;;;10.67;8.60;;;;;;;;;;767363;181;919227;-67
2021/11/02 01:24:09;;;;;;;12.20;9.10;;;;;;;;;;770402;180;918471;-66
2021/11/02 01:26:35;;;;;;;12.43;10.07;;;;;;;;;;776811;180;919018;-65
2021/11/02 01:29:01;;;;;;;15.47;10.80;;;;;;;;;;767504;180;919089;-65
2021/11/02 01:31:27;;;;;;;15.68;11.85;;;;;;;;;;771582;180;918371;-67
2021/11/02 01:33:53;;;;;;;14.20;10.50;;;;;;;;;;768349;180;919012;-64
2021/11/02 01:36:19;;;;;;;13.80;10.18;;;;;;;;;;770841;180;919411;-64
2021/11/02 01:38:45;;;;;;;13.60;10.27;;;;;;;;;;764213;180;919334;-73
2021/11/02 01:41:15;;;;;;;13.00;10.20;;;;;;;;;;770667;180;919450;-66
2021/11/02 01:43:38;;;;;;;13.43;9.70;;;;;;;;;;775791;181;919843;-66
2021/11/02 01:46:03;;;;;;;15.67;9.70;;;;;;;;;;771827;180;919379;-66
2021/11/02 01:48:29;;;;;;;15.30;10.60;;;;;;;;;;767716;179;919162;-66
2021/11/02 01:50:55;;;;;;;16.80;12.30;;;;;;;;;;772826;182;918854;-66
2021/11/02 01:53:21;;;;;;;14.37;10.60;;;;;;;;;;762286;182;918828;-66
2021/11/02 01:55:46;;;;;;;14.17;10.90;;;;;;;;;;762410;181;919078;-69
2021/11/02 01:58:14;;;;;;;17.35;12.37;;;;;;;;;;773382;181;918967;-66
2021/11/02 02:00:40;;;;;;;15.30;11.17;;;;;;;;;;773135;180;919709;-66
2021/11/02 02:03:06;;;;;;;13.80;10.60;;;;;;;;;;764629;180;1262792;-67
2021/11/02 02:05:35;;;;;;;12.83;10.07;;;;;;;;;;767132;180;919201;-66
2021/11/02 02:08:00;;;;;;;13.73;10.63;;;;;;;;;;770246;183;917398;-67
2021/11/02 02:10:27;;;;;;;14.70;11.13;;;;;;;;;;765134;183;918992;-67
2021/11/02 02:12:55;;;;;;;13.63;10.50;;;;;;;;;;765955;179;919230;-67
2021/11/02 02:15:33;;;;;;;15.63;10.50;;;;;;;;;;769148;180;937525;-66
2021/11/02 02:17:59;;;;;;;17.23;11.23;;;;;;;;;;774526;179;926502;-67
2021/11/02 02:20:43;;;;;;;20.37;12.03;;;;;;;;;;770157;180;919417;-68
2021/11/02 02:23:11;;;;;;;16.33;11.37;;;;;;;;;;763562;180;919718;-68
2021/11/02 02:25:39;;;;;;;15.70;12.60;;;;;;;;;;775971;179;920010;-68
2021/11/02 02:28:05;;;;;;;15.90;12.77;;;;;;;;;;764662;181;919459;-67
2021/11/02 02:30:32;;;;;;;16.43;13.00;;;;;;;;;;773112;180;919672;-68
2021/11/02 02:32:58;;;;;;;17.58;12.07;;;;;;;;;;773338;180;918963;-67
2021/11/02 02:35:25;;;;;;;18.03;12.57;;;;;;;;;;772075;180;920291;-67
2021/11/02 02:37:50;;;;;;;17.33;13.00;;;;;;;;;;775597;179;914971;-67
2021/11/02 02:40:16;;;;;;;17.40;11.57;;;;;;;;;;764366;181;920136;-68
2021/11/02 02:42:42;;;;;;;19.33;11.80;;;;;;;;;;767525;180;918947;-68
2021/11/02 02:45:08;;;;;;;14.83;10.40;;;;;;;;;;769136;180;923718;-68
2021/11/02 02:47:34;;;;;;;15.93;11.68;;;;;;;;;;776531;180;919304;-68
2021/11/02 02:50:00;;;;;;;17.13;13.43;;;;;;;;;;765527;180;919099;-67
2021/11/02 02:52:26;;;;;;;17.17;13.03;;;;;;;;;;764636;180;919310;-67
2021/11/02 02:54:51;;;;;;;18.00;12.93;;;;;;;;;;774704;180;916706;-67
2021/11/02 02:57:18;;;;;;;18.90;12.63;;;;;;;;;;771494;180;919332;-67
2021/11/02 02:59:44;;;;;;;22.00;12.87;;;;;;;;;;773282;180;918830;-67
2021/11/02 03:02:12;;;;;;;17.33;12.37;;;;;;;;;;770505;180;921789;-67
2021/11/02 03:04:36;;;;;;;19.15;14.00;;;;;;;;;;761390;182;919389;-67
2021/11/02 03:07:01;;;;;;;19.17;13.37;;;;;;;;;;765410;180;919994;-69
2021/11/02 03:09:27;;;;;;;18.33;13.83;;;;;;;;;;766460;179;1476099;-67
2021/11/02 03:11:53;;;;;;;19.93;14.20;;;;;;;;;;777921;180;919471;-68
2021/11/02 03:14:20;;;;;;;18.80;14.03;;;;;;;;;;763773;179;916536;-68
2021/11/02 03:16:54;;;;;;;19.33;14.13;;;;;;;;;;764750;180;915909;-67
2021/11/02 03:19:41;;;;;;;21.37;15.60;;;;;;;;;;775415;180;918722;-67
2021/11/02 03:44:58;;;;;;;25.23;17.47;;;;;;;;;;774362;179;919173;-68
2021/11/02 03:54:32;;;;;;;18.47;14.80;;;;;;;;;;763539;180;920899;-66
2021/11/02 03:54:47;;;;;;;22.30;15.33;;;;;;;;;;766501;181;921881;-66
2021/11/02 03:57:20;;;;;;;26.50;16.60;;;;;;;;;;771773;180;918793;-66
2021/11/02 04:00:26;;;;;;;19.27;14.50;;;;;;;;;;767071;181;918863;-64
2021/11/02 04:23:30;;;;;;;24.00;16.83;;;;;;;;;;768710;180;919324;-67
2021/11/02 04:28:01;;;;;;;23.80;16.20;;;;;;;;;;773535;180;920000;-65
2021/11/02 04:30:33;;;;;;;26.33;16.93;;;;;;;;;;767853;180;919340;-65
2021/11/02 04:42:18;;;;;;;24.70;17.13;;;;;;;;;;774241;180;904992;-65
2021/11/02 04:43:50;;;;;;;25.13;16.60;;;;;;;;;;771028;180;918657;-65
2021/11/02 04:57:48;;;;;;;26.10;15.40;;;;;;;;;;767219;180;920166;-66
2021/11/02 05:09:00;;;;;;;28.17;18.30;;;;;;;;;;768504;180;918822;-63
2021/11/02 05:47:03;;;;;;;44.87;29.40;;;;;;;;;;769445;179;626024;-62
2021/11/02 05:49:37;;;;;;;47.93;29.80;;;;;;;;;;775130;180;675606;-63
2021/11/02 05:57:22;;;;;;;48.07;30.40;;;;;;;;;;773351;179;911234;-64
2021/11/02 05:59:46;;;;;;;42.23;27.90;;;;;;;;;;776175;180;620818;-64
2021/11/02 06:02:23;;;;;;;43.78;27.65;;;;;;;;;;769617;181;910738;-63
2021/11/02 06:04:50;;;;;;;44.67;30.13;;;;;;;;;;770909;181;920536;-62
2021/11/02 06:08:02;;;;;;;46.47;30.70;;;;;;;;;;759712;180;2146247;-63
2021/11/02 06:10:12;;;;;;;44.83;30.57;;;;;;;;;;768686;180;919268;-62
2021/11/02 06:27:49;;;;;;;44.50;25.87;;;;;;;;;;775815;180;920065;-62
2021/11/02 06:30:09;;;;;;;40.00;27.10;;;;;;;;;;766641;180;918240;-62
2021/11/02 06:32:37;;;;;;;35.70;21.80;;;;;;;;;;762539;181;922652;-63
2021/11/02 06:37:47;;;;;;;27.93;17.30;;;;;;;;;;762320;181;918629;-61
2021/11/02 06:40:14;;;;;;;23.60;16.43;;;;;;;;;;764558;180;951176;-62
2021/11/02 06:48:13;;;;;;;21.10;15.00;;;;;;;;;;763200;180;921679;-60
2021/11/02 06:51:00;;;;;;;21.87;16.90;;;;;;;;;;763277;180;918493;-62
2021/11/02 06:53:27;;;;;;;24.20;16.80;;;;;;;;;;761400;180;911007;-61
2021/11/02 06:58:34;;;;;;;20.37;14.83;;;;;;;;;;768648;180;827816;-61
2021/11/02 07:10:52;;;;;;;26.73;17.13;;;;;;;;;;759397;182;909223;-61
2021/11/02 07:15:26;;;;;;;23.40;17.93;;;;;;;;;;771438;180;913102;-60
2021/11/02 07:16:19;;;;;;;29.93;21.10;;;;;;;;;;774871;180;918504;-61
2021/11/02 07:18:29;;;;;;;27.77;18.13;;;;;;;;;;771773;180;918505;-61
2021/11/02 07:21:05;;;;;;;25.67;18.07;;;;;;;;;;768682;181;1764262;-61
2021/11/02 07:23:34;;;;;;;32.27;20.63;;;;;;;;;;770953;181;915933;-61
2021/11/02 07:26:04;;;;;;;29.13;18.97;;;;;;;;;;772238;180;919122;-61
2021/11/02 07:28:37;;;;;;;29.30;19.03;;;;;;;;;;763971;180;932541;-61
2021/11/02 08:46:58;;;;;;;17.60;12.27;;;;;;;;;;766774;181;919346;-61
2021/11/02 08:49:19;;;;;;;20.70;14.27;;;;;;;;;;771406;180;920025;-61
2021/11/02 08:51:44;;;;;;;20.63;14.20;;;;;;;;;;765685;182;919340;-61
2021/11/02 08:54:10;;;;;;;19.37;12.97;;;;;;;;;;764759;181;918337;-62
2021/11/02 08:56:36;;;;;;;17.77;13.00;;;;;;;;;;763598;181;919698;-61
2021/11/02 08:59:02;;;;;;;19.87;14.10;;;;;;;;;;775373;179;920123;-61
2021/11/02 09:01:28;;;;;;;14.83;10.53;;;;;;;;;;771357;180;919195;-60
2021/11/02 09:03:54;;;;;;;17.57;11.73;;;;;;;;;;772875;180;919089;-60
2021/11/02 09:06:19;;;;;;;17.00;12.30;;;;;;;;;;774663;180;919494;-61
2021/11/02 09:08:45;;;;;;;17.97;11.53;;;;;;;;;;764964;180;920077;-61
2021/11/02 09:11:12;;;;;;;17.87;12.60;;;;;;;;;;763485;180;919176;-61
2021/11/02 09:13:37;;;;;;;16.30;13.00;;;;;;;;;;774174;181;925666;-62
2021/11/02 09:16:03;;;;;;;16.23;11.60;;;;;;;;;;771377;179;919926;-61
2021/11/02 09:18:29;;;;;;;18.60;11.70;;;;;;;;;;771747;180;920836;-61
2021/11/02 09:20:55;;;;;;;15.50;11.00;;;;;;;;;;762705;180;918864;-61
2021/11/02 09:23:21;;;;;;;15.53;11.50;;;;;;;;;;776683;180;919290;-61
2021/11/02 09:25:47;;;;;;;16.73;11.20;;;;;;;;;;771328;180;918663;-62
2021/11/02 09:28:13;;;;;;;14.80;11.23;;;;;;;;;;770899;180;919196;-61
2021/11/02 09:30:39;;;;;;;18.43;13.17;;;;;;;;;;775027;180;917750;-62
2021/11/02 09:33:04;;;;;;;15.77;12.07;;;;;;;;;;770940;180;919840;-61
2021/11/02 09:35:30;;;;;;;17.90;11.50;;;;;;;;;;773302;180;942184;-61
2021/11/02 09:38:11;;;;;;;17.83;11.67;;;;;;;;;;769271;181;919303;-61
2021/11/02 09:40:50;;;;;;;15.00;11.60;;;;;;;;;;770253;179;2659818;-62
2021/11/02 09:43:22;;;;;;;16.40;11.77;;;;;;;;;;776930;180;918884;-61
2021/11/02 09:45:54;;;;;;;17.92;13.10;;;;;;;;;;770462;179;918219;-62
2021/11/02 09:48:23;;;;;;;16.27;10.67;;;;;;;;;;771872;179;919004;-61
2021/11/02 09:51:06;;;;;;;15.87;10.87;;;;;;;;;;770980;180;920947;-62
2021/11/02 09:53:38;;;;;;;15.07;10.70;;;;;;;;;;766239;179;918447;-61
2021/11/02 09:56:19;;;;;;;17.97;11.93;;;;;;;;;;768526;180;926448;-61
2021/11/02 09:58:47;;;;;;;16.85;10.90;;;;;;;;;;754894;183;918892;-61
2021/11/02 10:01:32;;;;;;;17.33;12.40;;;;;;;;;;771162;181;919307;-62
2021/11/02 10:04:11;;;;;;;15.57;11.33;;;;;;;;;;769425;181;918632;-63
2021/11/02 10:06:42;;;;;;;12.87;9.70;;;;;;;;;;771299;180;920028;-62
2021/11/02 10:09:08;;;;;;;16.67;10.10;;;;;;;;;;767171;181;918562;-62
2021/11/02 10:11:50;;;;;;;14.27;10.73;;;;;;;;;;766849;181;919582;-62
2021/11/02 10:14:24;;;;;;;14.93;10.87;;;;;;;;;;763812;180;923837;-61
2021/11/02 10:16:59;;;;;;;16.87;12.63;;;;;;;;;;760160;180;1824741;-63
2021/11/02 10:19:28;;;;;;;15.20;11.13;;;;;;;;;;776221;180;920505;-62
2021/11/02 10:22:00;;;;;;;17.63;11.80;;;;;;;;;;774006;180;908621;-62
2021/11/02 10:24:32;;;;;;;15.93;12.07;;;;;;;;;;758917;181;919805;-62
2021/11/02 10:27:18;;;;;;;18.00;13.00;;;;;;;;;;763358;180;915612;-61
2021/11/02 10:29:53;;;;;;;23.40;14.53;;;;;;;;;;767963;180;915029;-61
2021/11/02 10:32:18;;;;;;;25.00;15.70;;;;;;;;;;759995;180;919502;-61
2021/11/02 10:34:46;;;;;;;20.37;13.77;;;;;;;;;;773486;180;918619;-62
2021/11/02 10:37:24;;;;;;;12.70;10.13;;;;;;;;;;775706;179;919343;-62
2021/11/02 10:39:57;;;;;;;15.88;9.57;;;;;;;;;;772383;179;919082;-62
2021/11/02 10:42:30;;;;;;;15.77;11.43;;;;;;;;;;769333;181;918667;-62
2021/11/02 10:44:56;;;;;;;14.30;10.60;;;;;;;;;;769779;181;918452;-62
2021/11/02 10:47:22;;;;;;;18.03;10.50;;;;;;;;;;773819;180;919583;-61
2021/11/02 10:49:59;;;;;;;12.00;8.70;;;;;;;;;;766073;180;919198;-62
2021/11/02 10:52:25;;;;;;;13.60;7.80;;;;;;;;;;771195;180;918587;-63
2021/11/02 10:55:06;;;;;;;10.33;6.60;;;;;;;;;;767337;180;919485;-64
2021/11/02 10:57:33;;;;;;;9.07;6.23;;;;;;;;;;766094;180;918973;-61
2021/11/02 10:59:58;;;;;;;10.60;6.50;;;;;;;;;;768428;180;919297;-62
2021/11/02 11:02:24;;;;;;;13.63;7.43;;;;;;;;;;759516;180;919481;-61
2021/11/02 11:04:50;;;;;;;10.45;7.30;;;;;;;;;;761432;180;919111;-62
2021/11/02 11:07:16;;;;;;;9.93;6.90;;;;;;;;;;762197;181;919490;-61
2021/11/02 11:09:42;;;;;;;7.87;6.23;;;;;;;;;;771960;181;918974;-61
2021/11/02 11:12:08;;;;;;;10.97;6.17;;;;;;;;;;759834;181;918570;-62
2021/11/02 11:14:34;;;;;;;7.28;5.03;;;;;;;;;;765439;180;919746;-61
2021/11/02 11:17:00;;;;;;;9.13;5.10;;;;;;;;;;774907;181;920925;-61
2021/11/02 11:19:27;;;;;;;7.70;5.37;;;;;;;;;;768048;180;920127;-61
2021/11/02 11:21:51;;;;;;;8.80;6.00;;;;;;;;;;770200;180;919606;-61
2021/11/02 11:24:18;;;;;;;9.70;5.60;;;;;;;;;;771399;182;902119;-61
2021/11/02 11:26:47;;;;;;;7.67;5.60;;;;;;;;;;770029;180;920781;-62
2021/11/02 11:29:11;;;;;;;8.50;5.93;;;;;;;;;;769617;180;919054;-61
2021/11/02 11:31:37;;;;;;;10.20;6.87;;;;;;;;;;769881;180;919499;-60
2021/11/02 11:34:03;;;;;;;7.30;5.22;;;;;;;;;;776787;180;920019;-61
2021/11/02 11:36:29;;;;;;;6.30;4.73;;;;;;;;;;772415;180;919705;-58
2021/11/02 11:38:57;;;;;;;8.63;5.53;;;;;;;;;;765003;179;920418;-60
2021/11/02 11:41:23;;;;;;;10.13;6.33;;;;;;;;;;774646;181;919398;-61
2021/11/02 11:43:48;;;;;;;14.00;6.00;;;;;;;;;;762477;180;919199;-61
2021/11/02 11:46:15;;;;;;;11.40;6.47;;;;;;;;;;773584;179;919446;-60
2021/11/02 11:48:41;;;;;;;7.60;5.70;;;;;;;;;;770981;181;922998;-62
2021/11/02 11:51:08;;;;;;;9.97;6.60;;;;;;;;;;763433;179;918806;-61
2021/11/02 11:53:32;;;;;;;10.03;6.30;;;;;;;;;;766339;181;918478;-60
2021/11/02 11:56:04;;;;;;;9.60;5.67;;;;;;;;;;771352;180;916700;-60
2021/11/02 11:58:30;;;;;;;8.87;5.93;;;;;;;;;;777335;180;915636;-62
2021/11/02 12:01:01;;;;;;;10.43;6.53;;;;;;;;;;773717;180;916730;-61
2021/11/02 12:03:32;;;;;;;10.20;7.07;;;;;;;;;;768085;180;916110;-60
2021/11/02 12:05:56;;;;;;;11.90;8.20;;;;;;;;;;766704;179;915666;-60
2021/11/02 12:08:22;;;;;;;10.40;8.37;;;;;;;;;;770851;180;619035;-59
2021/11/02 12:10:48;;;;;;;13.73;8.73;;;;;;;;;;765991;180;919373;-60
2021/11/02 12:13:14;;;;;;;12.20;9.40;;;;;;;;;;768981;180;917901;-61
2021/11/02 12:15:46;;;;;;;15.20;10.60;;;;;;;;;;774633;180;919055;-61
2021/11/02 12:18:12;;;;;;;14.40;9.53;;;;;;;;;;772079;181;915599;-61
2021/11/02 12:20:38;;;;;;;14.67;10.43;;;;;;;;;;764496;180;921534;-61
2021/11/02 12:23:10;;;;;;;13.67;10.53;;;;;;;;;;770030;180;919349;-61
2021/11/02 12:25:38;;;;;;;11.50;7.40;;;;;;;;;;766802;180;921649;-61
2021/11/02 12:28:04;;;;;;;7.20;6.07;;;;;;;;;;773020;180;911956;-60
2021/11/02 12:30:30;;;;;;;7.80;5.57;;;;;;;;;;754869;183;914658;-61
2021/11/02 12:32:56;;;;;;;6.20;4.90;;;;;;;;;;762292;183;914430;-61
2021/11/02 12:35:29;;;;;;;7.63;5.67;;;;;;;;;;776171;180;1015255;-61
2021/11/02 12:37:55;;;;;;;6.30;4.82;;;;;;;;;;766799;180;913580;-61
2021/11/02 12:40:23;;;;;;;7.30;4.87;;;;;;;;;;767484;180;919772;-62
2021/11/02 12:42:48;;;;;;;9.27;5.67;;;;;;;;;;769050;181;919469;-61
2021/11/02 12:45:14;;;;;;;7.90;5.30;;;;;;;;;;779911;180;918920;-62
2021/11/02 12:47:40;;;;;;;6.67;5.27;;;;;;;;;;774083;180;918998;-61
2021/11/02 12:50:07;;;;;;;10.93;7.03;;;;;;;;;;765646;180;919394;-61
2021/11/02 12:52:32;;;;;;;13.47;9.43;;;;;;;;;;772917;180;918536;-61
2021/11/02 12:54:59;;;;;;;15.30;9.57;;;;;;;;;;770628;179;920616;-61
2021/11/02 12:57:24;;;;;;;15.70;10.20;;;;;;;;;;770429;178;919556;-61
2021/11/02 12:59:52;;;;;;;13.77;10.43;;;;;;;;;;776565;180;919429;-61
2021/11/02 13:02:20;;;;;;;15.90;11.13;;;;;;;;;;769894;180;919877;-61
2021/11/02 13:04:45;;;;;;;14.30;10.83;;;;;;;;;;773192;179;918863;-62
2021/11/02 13:07:11;;;;;;;11.60;9.17;;;;;;;;;;770832;180;919525;-62
2021/11/02 13:09:37;;;;;;;15.50;11.23;;;;;;;;;;775729;180;922372;-61
2021/11/02 13:12:03;;;;;;;18.47;11.40;;;;;;;;;;772996;180;920248;-61
2021/11/02 13:14:35;;;;;;;14.40;10.40;;;;;;;;;;760726;181;1248697;-62
2021/11/02 13:17:00;;;;;;;12.57;10.20;;;;;;;;;;774162;180;918898;-61
2021/11/02 13:19:32;;;;;;;13.25;9.75;;;;;;;;;;762235;180;922855;-61
2021/11/02 13:21:58;;;;;;;12.97;10.20;;;;;;;;;;766760;179;919370;-61
2021/11/02 13:24:26;;;;;;;14.50;10.02;;;;;;;;;;776392;179;919665;-62
2021/11/02 13:26:53;;;;;;;12.37;9.20;;;;;;;;;;775832;180;917977;-61
2021/11/02 13:29:20;;;;;;;11.83;9.90;;;;;;;;;;772724;180;638047;-62
2021/11/02 13:31:45;;;;;;;15.23;9.43;;;;;;;;;;764771;180;880279;-62
2021/11/02 13:34:11;;;;;;;14.17;9.43;;;;;;;;;;771984;180;918648;-62
2021/11/02 13:36:37;;;;;;;13.60;9.50;;;;;;;;;;771131;181;918839;-64
2021/11/02 13:39:03;;;;;;;13.77;9.30;;;;;;;;;;762333;180;919130;-61
2021/11/02 13:41:30;;;;;;;11.33;9.00;;;;;;;;;;767597;181;919323;-61
2021/11/02 13:44:00;;;;;;;13.57;9.67;;;;;;;;;;773006;180;918272;-61
2021/11/02 13:46:23;;;;;;;12.73;8.83;;;;;;;;;;770640;180;918158;-62
2021/11/02 13:48:49;;;;;;;14.20;10.00;;;;;;;;;;768805;180;920870;-62
2021/11/02 13:51:15;;;;;;;18.03;10.50;;;;;;;;;;774982;180;920018;-62
2021/11/02 13:53:41;;;;;;;14.27;9.90;;;;;;;;;;767738;180;920005;-61
2021/11/02 13:56:07;;;;;;;14.23;10.83;;;;;;;;;;762963;180;918934;-61
2021/11/02 13:58:33;;;;;;;11.27;9.07;;;;;;;;;;769536;180;921151;-62
2021/11/02 14:00:59;;;;;;;11.87;8.87;;;;;;;;;;768218;180;921563;-61
2021/11/02 14:03:27;;;;;;;11.80;8.27;;;;;;;;;;767117;180;923260;-61
2021/11/02 14:05:52;;;;;;;13.00;9.53;;;;;;;;;;770981;180;918312;-61
2021/11/02 14:08:18;;;;;;;15.63;9.37;;;;;;;;;;773105;179;914466;-61
2021/11/02 14:10:50;;;;;;;19.33;9.77;;;;;;;;;;763295;181;917642;-61
2021/11/02 14:13:16;;;;;;;12.20;9.50;;;;;;;;;;773345;179;919578;-61
2021/11/02 14:15:42;;;;;;;15.30;10.80;;;;;;;;;;766286;181;918732;-62
2021/11/02 14:18:09;;;;;;;17.58;11.15;;;;;;;;;;776809;180;920244;-62
2021/11/02 14:20:34;;;;;;;14.30;11.10;;;;;;;;;;771253;180;919789;-61
2021/11/02 14:23:00;;;;;;;16.30;11.83;;;;;;;;;;766085;179;1303962;-65
2021/11/02 14:25:36;;;;;;;17.97;12.93;;;;;;;;;;774656;180;919224;-62
2021/11/02 14:28:02;;;;;;;18.50;12.00;;;;;;;;;;768381;180;1617831;-61
2021/11/02 14:30:40;;;;;;;18.58;11.63;;;;;;;;;;765546;180;917151;-63
2021/11/02 14:33:08;;;;;;;17.23;12.93;;;;;;;;;;767617;180;919872;-62
2021/11/02 14:35:38;;;;;;;15.43;11.40;;;;;;;;;;773167;180;919071;-64
2021/11/02 14:38:03;;;;;;;12.50;9.60;;;;;;;;;;778112;179;918564;-61
2021/11/02 14:40:29;;;;;;;17.20;12.70;;;;;;;;;;765015;180;918318;-61
2021/11/02 14:42:55;;;;;;;14.33;10.67;;;;;;;;;;766981;180;921064;-61
2021/11/02 14:45:40;;;;;;;12.82;10.75;;;;;;;;;;772028;180;919688;-61
2021/11/02 14:48:12;;;;;;;11.90;9.27;;;;;;;;;;766617;179;1021201;-61
2021/11/02 14:50:38;;;;;;;15.27;9.77;;;;;;;;;;770379;181;919944;-61
2021/11/02 14:53:08;;;;;;;15.77;11.60;;;;;;;;;;770809;180;1021401;-61
2021/11/02 14:55:40;;;;;;;11.90;9.60;;;;;;;;;;767250;181;919313;-61
2021/11/02 14:58:06;;;;;;;15.55;11.63;;;;;;;;;;764299;179;1485646;-62
2021/11/02 15:00:36;;;;;;;16.80;11.53;;;;;;;;;;777419;180;920113;-61
2021/11/02 15:03:02;;;;;;;13.77;11.03;;;;;;;;;;771250;180;919470;-61
2021/11/02 15:05:28;;;;;;;15.20;11.93;;;;;;;;;;766601;181;919422;-62
2021/11/02 15:07:54;;;;;;;14.00;11.20;;;;;;;;;;772595;180;919793;-61
2021/11/02 15:10:20;;;;;;;13.88;11.10;;;;;;;;;;770329;180;919613;-61
2021/11/02 15:12:45;;;;;;;14.60;11.90;;;;;;;;;;763244;179;919702;-69
2021/11/02 15:15:11;;;;;;;16.90;11.23;;;;;;;;;;764582;180;919239;-61
2021/11/02 15:17:37;;;;;;;17.80;11.63;;;;;;;;;;775866;180;919849;-61
2021/11/02 15:20:04;;;;;;;17.67;11.97;;;;;;;;;;766071;180;919593;-61
2021/11/02 15:22:30;;;;;;;15.40;11.83;;;;;;;;;;770250;180;918923;-61
2021/11/02 15:24:55;;;;;;;19.07;11.97;;;;;;;;;;779173;179;920239;-61
2021/11/02 15:27:22;;;;;;;18.77;13.50;;;;;;;;;;772674;180;919604;-61
2021/11/02 15:29:48;;;;;;;18.75;13.48;;;;;;;;;;769360;179;918832;-62
2021/11/02 15:32:14;;;;;;;19.93;14.37;;;;;;;;;;773056;180;918093;-61
2021/11/02 15:34:40;;;;;;;20.33;15.40;;;;;;;;;;769464;181;922535;-61
2021/11/02 15:37:05;;;;;;;22.47;14.70;;;;;;;;;;767062;180;918844;-61
2021/11/02 15:39:31;;;;;;;24.17;16.03;;;;;;;;;;767439;180;918993;-60
2021/11/02 15:41:57;;;;;;;25.83;17.87;;;;;;;;;;774659;180;919246;-61
2021/11/02 15:44:23;;;;;;;25.40;15.70;;;;;;;;;;770598;177;919195;-61
2021/11/02 15:46:49;;;;;;;28.70;16.93;;;;;;;;;;770168;180;919357;-61
2021/11/02 15:49:15;;;;;;;25.50;18.03;;;;;;;;;;775509;180;919206;-61
2021/11/02 15:51:40;;;;;;;33.23;19.73;;;;;;;;;;768654;180;919299;-61
2021/11/02 15:54:07;;;;;;;32.97;20.30;;;;;;;;;;767172;180;918625;-61
2021/11/02 15:56:32;;;;;;;31.97;21.03;;;;;;;;;;767308;182;919664;-61
2021/11/02 15:58:58;;;;;;;35.43;22.63;;;;;;;;;;764511;180;918690;-60
2021/11/02 16:01:28;;;;;;;32.27;21.10;;;;;;;;;;767826;180;919349;-62
2021/11/02 16:03:54;;;;;;;29.73;19.83;;;;;;;;;;768391;180;919125;-61
2021/11/02 16:06:19;;;;;;;31.63;18.53;;;;;;;;;;771474;180;925979;-60
2021/11/02 16:08:45;;;;;;;35.67;22.00;;;;;;;;;;772341;179;628294;-61
2021/11/02 16:11:11;;;;;;;32.60;22.00;;;;;;;;;;772529;180;628005;-61
2021/11/02 16:13:37;;;;;;;34.07;23.67;;;;;;;;;;774040;180;649157;-61
2021/11/02 16:16:03;;;;;;;31.67;21.30;;;;;;;;;;767618;180;920488;-61
2021/11/02 16:18:29;;;;;;;32.45;21.05;;;;;;;;;;772910;180;883606;-65
2021/11/02 16:20:56;;;;;;;30.17;19.60;;;;;;;;;;775230;180;942254;-61
2021/11/02 16:23:22;;;;;;;27.07;18.50;;;;;;;;;;765388;179;919278;-61
2021/11/02 16:25:48;;;;;;;25.70;17.27;;;;;;;;;;770960;179;868953;-59
2021/11/02 16:28:15;;;;;;;32.50;18.98;;;;;;;;;;766541;180;921053;-59
2021/11/02 16:30:41;;;;;;;30.80;19.23;;;;;;;;;;773565;179;921649;-60
2021/11/02 16:33:07;;;;;;;31.30;18.60;;;;;;;;;;773820;180;910577;-60
2021/11/02 16:35:33;;;;;;;26.03;18.67;;;;;;;;;;760575;181;926654;-60
2021/11/02 16:37:59;;;;;;;33.93;20.70;;;;;;;;;;773686;179;619057;-60
2021/11/02 16:40:25;;;;;;;32.10;21.13;;;;;;;;;;770287;179;919039;-61
2021/11/02 16:43:06;;;;;;;34.53;22.50;;;;;;;;;;769223;180;815382;-61
2021/11/02 16:45:32;;;;;;;31.62;22.52;;;;;;;;;;770317;180;918067;-60
2021/11/02 16:48:00;;;;;;;44.10;27.62;;;;;;;;;;772675;180;919565;-59
2021/11/02 16:50:25;;;;;;;49.80;33.63;;;;;;;;;;771477;180;937566;-60
2021/11/02 16:52:51;;;;;;;39.87;24.87;;;;;;;;;;760564;182;919701;-60
2021/11/02 16:55:17;;;;;;;30.30;22.07;;;;;;;;;;763659;181;919868;-60
2021/11/02 16:57:43;;;;;;;32.70;19.40;;;;;;;;;;771118;181;919491;-59
2021/11/02 17:00:11;;;;;;;28.90;19.30;;;;;;;;;;764196;180;920537;-59
2021/11/02 17:02:39;;;;;;;29.97;19.40;;;;;;;;;;774611;180;643959;-59
2021/11/02 17:05:04;;;;;;;28.20;19.97;;;;;;;;;;777071;180;626221;-60
2021/11/02 17:07:33;;;;;;;27.70;19.57;;;;;;;;;;771671;180;631052;-60
2021/11/02 17:09:58;;;;;;;25.73;19.37;;;;;;;;;;768385;180;918896;-60
2021/11/02 17:12:24;;;;;;;29.73;19.50;;;;;;;;;;769193;180;919632;-60
2021/11/02 17:14:50;;;;;;;28.67;20.52;;;;;;;;;;773051;179;918863;-60
2021/11/02 17:17:16;;;;;;;26.37;17.30;;;;;;;;;;766766;180;918350;-61
2021/11/02 17:19:42;;;;;;;29.73;18.97;;;;;;;;;;766706;181;648686;-60
2021/11/02 17:22:08;;;;;;;27.77;19.40;;;;;;;;;;775466;180;617532;-60
2021/11/02 17:24:33;;;;;;;25.30;19.20;;;;;;;;;;772643;181;639749;-62
2021/11/02 17:27:00;;;;;;;27.33;20.10;;;;;;;;;;771928;180;918461;-60
2021/11/02 17:29:27;;;;;;;27.47;19.70;;;;;;;;;;777639;179;916375;-60
2021/11/02 17:31:52;;;;;;;33.17;21.60;;;;;;;;;;769594;180;919362;-60
2021/11/02 17:34:22;;;;;;;32.23;20.03;;;;;;;;;;765109;180;919016;-60
2021/11/02 17:36:50;;;;;;;27.90;18.80;;;;;;;;;;768844;180;915629;-60
2021/11/02 17:39:16;;;;;;;27.70;19.60;;;;;;;;;;776010;180;903085;-60
2021/11/02 17:41:42;;;;;;;27.03;19.47;;;;;;;;;;768663;180;919621;-61
2021/11/02 17:44:08;;;;;;;30.08;20.00;;;;;;;;;;770807;179;915515;-60
2021/11/02 17:46:35;;;;;;;27.17;19.13;;;;;;;;;;772100;179;1023243;-60
2021/11/02 17:49:01;;;;;;;29.17;19.27;;;;;;;;;;771122;182;915385;-61
2021/11/02 17:51:26;;;;;;;30.37;20.30;;;;;;;;;;769387;179;920220;-60
2021/11/02 17:53:53;;;;;;;26.10;17.93;;;;;;;;;;769679;181;919910;-60
2021/11/02 17:56:18;;;;;;;29.95;20.83;;;;;;;;;;774450;180;1545611;-60
2021/11/02 17:58:44;;;;;;;27.87;19.20;;;;;;;;;;772662;180;918894;-60
2021/11/02 18:01:10;;;;;;;32.57;21.33;;;;;;;;;;765951;181;919668;-62
2021/11/02 18:03:36;;;;;;;33.10;20.33;;;;;;;;;;772406;180;919124;-60